sensor_id;sensor_type;location;lat;lon;timestamp;temperature;humidity
65478;SHT31;53678;39.642;22.430;2022-11-20T00:01:06;19.14;63.99
65478;SHT31;53678;39.642;22.430;2022-11-20T00:03:33;18.99;64.24
65478;SHT31;53678;39.642;22.430;2022-11-20T00:06:03;18.88;64.57
65478;SHT31;53678;39.642;22.430;2022-11-20T00:08:30;18.76;64.98
65478;SHT31;53678;39.642;22.430;2022-11-20T00:10:56;18.72;65.14
65478;SHT31;53678;39.642;22.430;2022-11-20T00:13:22;18.66;65.47
65478;SHT31;53678;39.642;22.430;2022-11-20T00:15:47;18.70;65.34
65478;SHT31;53678;39.642;22.430;2022-11-20T00:18:14;18.75;65.33
65478;SHT31;53678;39.642;22.430;2022-11-20T00:20:39;18.75;65.20
65478;SHT31;53678;39.642;22.430;2022-11-20T00:23:06;18.70;65.16
65478;SHT31;53678;39.642;22.430;2022-11-20T00:25:34;18.69;65.54
65478;SHT31;53678;39.642;22.430;2022-11-20T00:28:00;18.60;65.55
65478;SHT31;53678;39.642;22.430;2022-11-20T00:30:26;18.58;65.98
65478;SHT31;53678;39.642;22.430;2022-11-20T00:32:52;18.62;65.68
65478;SHT31;53678;39.642;22.430;2022-11-20T00:35:17;18.62;65.89
65478;SHT31;53678;39.642;22.430;2022-11-20T00:37:44;18.68;65.53
65478;SHT31;53678;39.642;22.430;2022-11-20T00:40:10;18.55;66.02
65478;SHT31;53678;39.642;22.430;2022-11-20T00:42:36;18.48;66.39
65478;SHT31;53678;39.642;22.430;2022-11-20T00:45:02;18.53;65.90
65478;SHT31;53678;39.642;22.430;2022-11-20T00:47:28;18.47;66.41
65478;SHT31;53678;39.642;22.430;2022-11-20T00:49:54;18.48;66.29
65478;SHT31;53678;39.642;22.430;2022-11-20T00:52:20;18.52;66.01
65478;SHT31;53678;39.642;22.430;2022-11-20T00:54:46;18.49;66.05
65478;SHT31;53678;39.642;22.430;2022-11-20T00:57:12;18.69;65.70
65478;SHT31;53678;39.642;22.430;2022-11-20T00:59:38;18.48;66.18
65478;SHT31;53678;39.642;22.430;2022-11-20T01:02:04;18.52;65.92
65478;SHT31;53678;39.642;22.430;2022-11-20T01:04:30;18.56;66.02
65478;SHT31;53678;39.642;22.430;2022-11-20T01:06:55;18.30;66.63
65478;SHT31;53678;39.642;22.430;2022-11-20T01:09:21;18.31;66.56
65478;SHT31;53678;39.642;22.430;2022-11-20T01:11:47;18.11;67.23
65478;SHT31;53678;39.642;22.430;2022-11-20T01:14:16;17.86;68.19
65478;SHT31;53678;39.642;22.430;2022-11-20T01:16:44;17.72;68.66
65478;SHT31;53678;39.642;22.430;2022-11-20T01:19:14;17.60;69.09
65478;SHT31;53678;39.642;22.430;2022-11-20T01:21:42;17.56;69.43
65478;SHT31;53678;39.642;22.430;2022-11-20T01:24:11;17.36;70.40
65478;SHT31;53678;39.642;22.430;2022-11-20T01:26:39;17.23;70.85
65478;SHT31;53678;39.642;22.430;2022-11-20T01:29:07;17.59;69.00
65478;SHT31;53678;39.642;22.430;2022-11-20T01:31:35;17.28;70.74
65478;SHT31;53678;39.642;22.430;2022-11-20T01:34:06;17.18;71.34
65478;SHT31;53678;39.642;22.430;2022-11-20T01:36:34;17.16;71.06
65478;SHT31;53678;39.642;22.430;2022-11-20T01:39:04;17.04;71.36
65478;SHT31;53678;39.642;22.430;2022-11-20T01:41:32;17.23;70.45
65478;SHT31;53678;39.642;22.430;2022-11-20T01:44:22;17.70;68.93
65478;SHT31;53678;39.642;22.430;2022-11-20T01:47:02;17.59;69.07
65478;SHT31;53678;39.642;22.430;2022-11-20T01:49:42;17.54;69.88
65478;SHT31;53678;39.642;22.430;2022-11-20T01:52:20;17.29;70.90
65478;SHT31;53678;39.642;22.430;2022-11-20T01:54:52;17.10;71.41
65478;SHT31;53678;39.642;22.430;2022-11-20T01:57:20;17.32;70.62
65478;SHT31;53678;39.642;22.430;2022-11-20T01:59:54;17.18;71.02
65478;SHT31;53678;39.642;22.430;2022-11-20T02:02:21;17.23;71.06
65478;SHT31;53678;39.642;22.430;2022-11-20T02:04:47;17.46;69.49
65478;SHT31;53678;39.642;22.430;2022-11-20T02:07:15;17.65;68.58
65478;SHT31;53678;39.642;22.430;2022-11-20T02:09:41;18.31;66.17
65478;SHT31;53678;39.642;22.430;2022-11-20T02:12:07;18.55;65.36
65478;SHT31;53678;39.642;22.430;2022-11-20T02:14:53;18.68;64.33
65478;SHT31;53678;39.642;22.430;2022-11-20T02:17:19;19.32;62.17
65478;SHT31;53678;39.642;22.430;2022-11-20T02:19:45;19.58;61.78
65478;SHT31;53678;39.642;22.430;2022-11-20T02:22:14;19.39;62.51
65478;SHT31;53678;39.642;22.430;2022-11-20T02:24:43;19.30;63.07
65478;SHT31;53678;39.642;22.430;2022-11-20T02:27:15;19.04;63.63
65478;SHT31;53678;39.642;22.430;2022-11-20T02:29:54;18.95;63.80
65478;SHT31;53678;39.642;22.430;2022-11-20T02:32:25;18.89;63.82
65478;SHT31;53678;39.642;22.430;2022-11-20T02:34:53;18.95;63.59
65478;SHT31;53678;39.642;22.430;2022-11-20T02:37:20;19.10;63.38
65478;SHT31;53678;39.642;22.430;2022-11-20T02:39:48;18.85;64.26
65478;SHT31;53678;39.642;22.430;2022-11-20T02:42:15;18.79;64.20
65478;SHT31;53678;39.642;22.430;2022-11-20T02:44:41;18.77;64.27
65478;SHT31;53678;39.642;22.430;2022-11-20T02:47:07;18.70;64.68
65478;SHT31;53678;39.642;22.430;2022-11-20T02:49:33;18.73;65.07
65478;SHT31;53678;39.642;22.430;2022-11-20T02:51:59;18.49;66.21
65478;SHT31;53678;39.642;22.430;2022-11-20T02:54:25;18.44;66.69
65478;SHT31;53678;39.642;22.430;2022-11-20T02:56:51;18.66;65.22
65478;SHT31;53678;39.642;22.430;2022-11-20T02:59:17;18.63;66.31
65478;SHT31;53678;39.642;22.430;2022-11-20T03:01:43;18.56;66.70
65478;SHT31;53678;39.642;22.430;2022-11-20T03:04:09;18.53;67.05
65478;SHT31;53678;39.642;22.430;2022-11-20T03:06:35;18.58;65.87
65478;SHT31;53678;39.642;22.430;2022-11-20T03:09:01;18.55;66.32
65478;SHT31;53678;39.642;22.430;2022-11-20T03:11:27;19.02;63.83
65478;SHT31;53678;39.642;22.430;2022-11-20T03:13:53;18.89;65.09
65478;SHT31;53678;39.642;22.430;2022-11-20T03:16:21;18.82;65.34
65478;SHT31;53678;39.642;22.430;2022-11-20T03:18:48;18.77;65.76
65478;SHT31;53678;39.642;22.430;2022-11-20T03:21:15;18.72;66.32
65478;SHT31;53678;39.642;22.430;2022-11-20T03:23:42;18.70;66.07
65478;SHT31;53678;39.642;22.430;2022-11-20T03:26:16;18.79;65.69
65478;SHT31;53678;39.642;22.430;2022-11-20T03:28:46;18.75;66.80
65478;SHT31;53678;39.642;22.430;2022-11-20T03:31:14;18.66;67.42
65478;SHT31;53678;39.642;22.430;2022-11-20T03:33:41;18.53;68.23
65478;SHT31;53678;39.642;22.430;2022-11-20T03:36:12;17.93;70.56
65478;SHT31;53678;39.642;22.430;2022-11-20T03:38:39;17.45;73.10
65478;SHT31;53678;39.642;22.430;2022-11-20T03:41:08;17.45;72.92
65478;SHT31;53678;39.642;22.430;2022-11-20T03:43:35;17.38;73.27
65478;SHT31;53678;39.642;22.430;2022-11-20T03:46:01;17.33;73.34
65478;SHT31;53678;39.642;22.430;2022-11-20T03:48:27;17.36;73.23
65478;SHT31;53678;39.642;22.430;2022-11-20T03:51:05;17.32;73.53
65478;SHT31;53678;39.642;22.430;2022-11-20T03:53:32;16.91;75.11
65478;SHT31;53678;39.642;22.430;2022-11-20T03:55:57;16.73;76.39
65478;SHT31;53678;39.642;22.430;2022-11-20T03:58:23;16.63;77.06
65478;SHT31;53678;39.642;22.430;2022-11-20T04:00:49;16.84;76.40
65478;SHT31;53678;39.642;22.430;2022-11-20T04:03:15;16.80;76.36
65478;SHT31;53678;39.642;22.430;2022-11-20T04:05:41;16.83;76.45
65478;SHT31;53678;39.642;22.430;2022-11-20T04:08:07;16.91;75.81
65478;SHT31;53678;39.642;22.430;2022-11-20T04:10:33;17.02;74.60
65478;SHT31;53678;39.642;22.430;2022-11-20T04:12:58;17.19;74.50
65478;SHT31;53678;39.642;22.430;2022-11-20T04:15:24;17.26;74.25
65478;SHT31;53678;39.642;22.430;2022-11-20T04:17:50;17.67;70.85
65478;SHT31;53678;39.642;22.430;2022-11-20T04:20:16;17.93;69.92
65478;SHT31;53678;39.642;22.430;2022-11-20T04:22:42;17.94;70.03
65478;SHT31;53678;39.642;22.430;2022-11-20T04:25:08;18.10;69.32
65478;SHT31;53678;39.642;22.430;2022-11-20T04:27:34;18.07;69.78
65478;SHT31;53678;39.642;22.430;2022-11-20T04:30:00;17.62;71.60
65478;SHT31;53678;39.642;22.430;2022-11-20T04:32:26;17.04;74.94
65478;SHT31;53678;39.642;22.430;2022-11-20T04:34:51;16.61;77.12
65478;SHT31;53678;39.642;22.430;2022-11-20T04:37:17;16.42;78.11
65478;SHT31;53678;39.642;22.430;2022-11-20T04:39:43;16.20;79.17
65478;SHT31;53678;39.642;22.430;2022-11-20T04:42:10;16.04;80.03
65478;SHT31;53678;39.642;22.430;2022-11-20T04:44:54;16.34;79.30
65478;SHT31;53678;39.642;22.430;2022-11-20T04:47:21;16.53;78.62
65478;SHT31;53678;39.642;22.430;2022-11-20T04:49:47;16.56;78.72
65478;SHT31;53678;39.642;22.430;2022-11-20T04:52:12;16.60;78.49
65478;SHT31;53678;39.642;22.430;2022-11-20T04:54:38;16.60;78.86
65478;SHT31;53678;39.642;22.430;2022-11-20T04:57:04;16.59;79.29
65478;SHT31;53678;39.642;22.430;2022-11-20T04:59:30;16.56;79.47
65478;SHT31;53678;39.642;22.430;2022-11-20T05:01:56;16.54;79.88
65478;SHT31;53678;39.642;22.430;2022-11-20T05:04:22;16.42;80.58
65478;SHT31;53678;39.642;22.430;2022-11-20T05:06:50;16.39;80.78
65478;SHT31;53678;39.642;22.430;2022-11-20T05:09:16;16.37;81.07
65478;SHT31;53678;39.642;22.430;2022-11-20T05:11:41;16.29;81.65
65478;SHT31;53678;39.642;22.430;2022-11-20T05:14:07;16.32;81.72
65478;SHT31;53678;39.642;22.430;2022-11-20T05:16:34;16.26;82.21
65478;SHT31;53678;39.642;22.430;2022-11-20T05:19:02;16.37;81.71
65478;SHT31;53678;39.642;22.430;2022-11-20T05:21:30;16.39;81.32
65478;SHT31;53678;39.642;22.430;2022-11-20T05:23:57;16.36;81.37
65478;SHT31;53678;39.642;22.430;2022-11-20T05:26:24;16.40;80.67
65478;SHT31;53678;39.642;22.430;2022-11-20T05:28:50;16.40;80.97
65478;SHT31;53678;39.642;22.430;2022-11-20T05:31:22;16.53;80.76
65478;SHT31;53678;39.642;22.430;2022-11-20T05:33:48;16.52;80.69
65478;SHT31;53678;39.642;22.430;2022-11-20T05:36:15;16.75;80.10
65478;SHT31;53678;39.642;22.430;2022-11-20T05:38:42;16.91;79.87
65478;SHT31;53678;39.642;22.430;2022-11-20T05:41:13;16.96;79.88
65478;SHT31;53678;39.642;22.430;2022-11-20T05:43:41;17.05;79.91
65478;SHT31;53678;39.642;22.430;2022-11-20T05:46:09;17.12;80.02
65478;SHT31;53678;39.642;22.430;2022-11-20T05:48:36;17.26;79.50
65478;SHT31;53678;39.642;22.430;2022-11-20T05:51:04;17.31;79.56
65478;SHT31;53678;39.642;22.430;2022-11-20T05:53:32;17.29;80.05
65478;SHT31;53678;39.642;22.430;2022-11-20T05:56:00;17.28;79.96
65478;SHT31;53678;39.642;22.430;2022-11-20T05:58:27;17.35;80.03
65478;SHT31;53678;39.642;22.430;2022-11-20T06:00:53;17.49;79.63
65478;SHT31;53678;39.642;22.430;2022-11-20T06:03:20;17.45;79.65
65478;SHT31;53678;39.642;22.430;2022-11-20T06:05:47;17.47;79.66
65478;SHT31;53678;39.642;22.430;2022-11-20T06:08:13;17.56;79.35
65478;SHT31;53678;39.642;22.430;2022-11-20T06:10:39;17.56;79.41
65478;SHT31;53678;39.642;22.430;2022-11-20T06:13:04;17.77;78.92
65478;SHT31;53678;39.642;22.430;2022-11-20T06:15:30;17.72;79.07
65478;SHT31;53678;39.642;22.430;2022-11-20T06:17:56;17.72;79.28
65478;SHT31;53678;39.642;22.430;2022-11-20T06:20:22;17.77;79.07
65478;SHT31;53678;39.642;22.430;2022-11-20T06:22:48;17.73;79.25
65478;SHT31;53678;39.642;22.430;2022-11-20T06:25:15;17.79;78.97
65478;SHT31;53678;39.642;22.430;2022-11-20T06:27:41;17.79;79.04
65478;SHT31;53678;39.642;22.430;2022-11-20T06:30:07;17.84;78.91
65478;SHT31;53678;39.642;22.430;2022-11-20T06:32:33;17.83;78.99
65478;SHT31;53678;39.642;22.430;2022-11-20T06:34:59;17.98;78.45
65478;SHT31;53678;39.642;22.430;2022-11-20T06:37:25;18.11;77.92
65478;SHT31;53678;39.642;22.430;2022-11-20T06:39:51;18.14;77.87
65478;SHT31;53678;39.642;22.430;2022-11-20T06:42:17;18.31;77.08
65478;SHT31;53678;39.642;22.430;2022-11-20T06:44:43;18.35;77.12
65478;SHT31;53678;39.642;22.430;2022-11-20T06:47:08;18.39;77.00
65478;SHT31;53678;39.642;22.430;2022-11-20T06:49:34;18.44;76.96
65478;SHT31;53678;39.642;22.430;2022-11-20T06:52:02;18.55;76.66
65478;SHT31;53678;39.642;22.430;2022-11-20T06:54:28;18.51;76.96
65478;SHT31;53678;39.642;22.430;2022-11-20T06:56:54;18.53;77.10
65478;SHT31;53678;39.642;22.430;2022-11-20T06:59:20;18.66;76.97
65478;SHT31;53678;39.642;22.430;2022-11-20T07:01:46;18.70;76.62
65478;SHT31;53678;39.642;22.430;2022-11-20T07:04:12;18.76;76.86
65478;SHT31;53678;39.642;22.430;2022-11-20T07:06:38;18.77;76.85
65478;SHT31;53678;39.642;22.430;2022-11-20T07:09:04;18.76;77.11
65478;SHT31;53678;39.642;22.430;2022-11-20T07:11:30;18.82;77.11
65478;SHT31;53678;39.642;22.430;2022-11-20T07:13:56;18.88;76.86
65478;SHT31;53678;39.642;22.430;2022-11-20T07:16:23;18.97;76.79
65478;SHT31;53678;39.642;22.430;2022-11-20T07:18:48;19.02;76.67
65478;SHT31;53678;39.642;22.430;2022-11-20T07:21:14;19.07;76.66
65478;SHT31;53678;39.642;22.430;2022-11-20T07:23:41;19.20;76.59
65478;SHT31;53678;39.642;22.430;2022-11-20T07:26:09;19.17;76.70
65478;SHT31;53678;39.642;22.430;2022-11-20T07:28:35;19.34;76.33
65478;SHT31;53678;39.642;22.430;2022-11-20T07:31:02;19.34;76.21
65478;SHT31;53678;39.642;22.430;2022-11-20T07:33:28;19.32;76.25
65478;SHT31;53678;39.642;22.430;2022-11-20T07:35:54;19.44;76.01
65478;SHT31;53678;39.642;22.430;2022-11-20T07:38:20;19.50;75.74
65478;SHT31;53678;39.642;22.430;2022-11-20T07:40:47;19.54;75.57
65478;SHT31;53678;39.642;22.430;2022-11-20T07:43:13;19.67;75.18
65478;SHT31;53678;39.642;22.430;2022-11-20T07:45:39;19.62;74.88
65478;SHT31;53678;39.642;22.430;2022-11-20T07:48:05;19.67;74.60
65478;SHT31;53678;39.642;22.430;2022-11-20T07:50:31;19.71;74.28
65478;SHT31;53678;39.642;22.430;2022-11-20T07:53:03;19.81;73.86
65478;SHT31;53678;39.642;22.430;2022-11-20T07:55:30;19.89;73.41
65478;SHT31;53678;39.642;22.430;2022-11-20T07:57:56;20.06;72.70
65478;SHT31;53678;39.642;22.430;2022-11-20T08:00:23;20.13;72.43
65478;SHT31;53678;39.642;22.430;2022-11-20T08:02:49;20.22;72.00
65478;SHT31;53678;39.642;22.430;2022-11-20T08:05:15;20.26;71.65
65478;SHT31;53678;39.642;22.430;2022-11-20T08:07:42;20.36;71.43
65478;SHT31;53678;39.642;22.430;2022-11-20T08:10:11;20.46;71.21
65478;SHT31;53678;39.642;22.430;2022-11-20T08:12:48;20.53;70.88
65478;SHT31;53678;39.642;22.430;2022-11-20T08:15:33;20.71;70.37
65478;SHT31;53678;39.642;22.430;2022-11-20T08:18:03;20.94;69.85
65478;SHT31;53678;39.642;22.430;2022-11-20T08:20:30;21.09;69.32
65478;SHT31;53678;39.642;22.430;2022-11-20T08:23:04;21.13;69.19
65478;SHT31;53678;39.642;22.430;2022-11-20T08:25:32;21.21;69.15
65478;SHT31;53678;39.642;22.430;2022-11-20T08:28:00;21.33;68.92
65478;SHT31;53678;39.642;22.430;2022-11-20T08:30:26;21.49;68.27
65478;SHT31;53678;39.642;22.430;2022-11-20T08:32:53;21.64;67.75
65478;SHT31;53678;39.642;22.430;2022-11-20T08:35:20;21.50;67.91
65478;SHT31;53678;39.642;22.430;2022-11-20T08:37:47;21.36;68.03
65478;SHT31;53678;39.642;22.430;2022-11-20T08:40:13;21.38;68.31
65478;SHT31;53678;39.642;22.430;2022-11-20T08:42:49;21.47;68.22
65478;SHT31;53678;39.642;22.430;2022-11-20T08:45:17;21.36;68.37
65478;SHT31;53678;39.642;22.430;2022-11-20T08:47:44;21.16;69.12
65478;SHT31;53678;39.642;22.430;2022-11-20T08:50:11;21.36;68.77
65478;SHT31;53678;39.642;22.430;2022-11-20T08:52:37;21.35;68.84
65478;SHT31;53678;39.642;22.430;2022-11-20T08:55:04;21.60;68.25
65478;SHT31;53678;39.642;22.430;2022-11-20T08:57:36;21.87;67.16
65478;SHT31;53678;39.642;22.430;2022-11-20T09:00:04;22.17;66.51
65478;SHT31;53678;39.642;22.430;2022-11-20T09:02:30;22.63;65.47
65478;SHT31;53678;39.642;22.430;2022-11-20T09:04:58;22.69;65.05
65478;SHT31;53678;39.642;22.430;2022-11-20T09:07:23;22.72;64.90
65478;SHT31;53678;39.642;22.430;2022-11-20T09:09:50;22.86;64.44
65478;SHT31;53678;39.642;22.430;2022-11-20T09:12:15;22.79;64.49
65478;SHT31;53678;39.642;22.430;2022-11-20T09:14:41;22.80;64.51
65478;SHT31;53678;39.642;22.430;2022-11-20T09:17:09;23.00;64.02
65478;SHT31;53678;39.642;22.430;2022-11-20T09:19:36;23.34;63.12
65478;SHT31;53678;39.642;22.430;2022-11-20T09:22:01;23.13;63.34
65478;SHT31;53678;39.642;22.430;2022-11-20T09:24:28;23.13;63.36
65478;SHT31;53678;39.642;22.430;2022-11-20T09:26:53;22.87;62.77
65478;SHT31;53678;39.642;22.430;2022-11-20T09:29:19;22.90;63.09
65478;SHT31;53678;39.642;22.430;2022-11-20T09:31:45;22.68;62.92
65478;SHT31;53678;39.642;22.430;2022-11-20T09:34:11;22.87;62.65
65478;SHT31;53678;39.642;22.430;2022-11-20T09:36:37;22.95;61.67
65478;SHT31;53678;39.642;22.430;2022-11-20T09:39:03;23.24;60.59
65478;SHT31;53678;39.642;22.430;2022-11-20T09:44:07;23.30;60.37
65478;SHT31;53678;39.642;22.430;2022-11-20T09:46:57;23.48;59.78
65478;SHT31;53678;39.642;22.430;2022-11-20T09:49:36;23.75;58.34
65478;SHT31;53678;39.642;22.430;2022-11-20T09:52:22;23.95;56.48
65478;SHT31;53678;39.642;22.430;2022-11-20T09:54:52;23.95;58.11
65478;SHT31;53678;39.642;22.430;2022-11-20T09:57:25;23.78;58.49
65478;SHT31;53678;39.642;22.430;2022-11-20T10:00:04;23.54;58.98
65478;SHT31;53678;39.642;22.430;2022-11-20T10:03:05;23.79;58.43
65478;SHT31;53678;39.642;22.430;2022-11-20T10:08:29;23.86;55.09
65478;SHT31;53678;39.642;22.430;2022-11-20T10:22:35;23.30;57.30
65478;SHT31;53678;39.642;22.430;2022-11-20T10:25:18;23.08;56.41
65478;SHT31;53678;39.642;22.430;2022-11-20T10:27:48;22.92;55.66
65478;SHT31;53678;39.642;22.430;2022-11-20T10:30:21;22.90;56.08
65478;SHT31;53678;39.642;22.430;2022-11-20T10:33:21;22.82;55.91
65478;SHT31;53678;39.642;22.430;2022-11-20T10:38:47;22.52;63.30
65478;SHT31;53678;39.642;22.430;2022-11-20T10:41:38;22.41;64.24
65478;SHT31;53678;39.642;22.430;2022-11-20T10:44:17;22.42;64.62
65478;SHT31;53678;39.642;22.430;2022-11-20T10:47:05;22.27;66.07
65478;SHT31;53678;39.642;22.430;2022-11-20T10:49:36;22.04;66.66
65478;SHT31;53678;39.642;22.430;2022-11-20T10:52:07;22.05;64.86
65478;SHT31;53678;39.642;22.430;2022-11-20T11:00:09;21.91;61.82
65478;SHT31;53678;39.642;22.430;2022-11-20T11:02:48;21.74;61.32
65478;SHT31;53678;39.642;22.430;2022-11-20T11:08:03;21.38;60.45
65478;SHT31;53678;39.642;22.430;2022-11-20T11:10:58;21.31;60.01
65478;SHT31;53678;39.642;22.430;2022-11-20T11:13:25;21.29;60.55
65478;SHT31;53678;39.642;22.430;2022-11-20T11:15:52;21.21;60.75
65478;SHT31;53678;39.642;22.430;2022-11-20T11:18:33;21.11;61.06
65478;SHT31;53678;39.642;22.430;2022-11-20T11:21:01;21.12;61.67
65478;SHT31;53678;39.642;22.430;2022-11-20T11:23:39;21.09;62.00
65478;SHT31;53678;39.642;22.430;2022-11-20T11:26:18;21.05;62.50
65478;SHT31;53678;39.642;22.430;2022-11-20T11:29:04;20.95;63.21
65478;SHT31;53678;39.642;22.430;2022-11-20T11:31:34;20.88;63.92
65478;SHT31;53678;39.642;22.430;2022-11-20T11:34:19;20.71;66.06
65478;SHT31;53678;39.642;22.430;2022-11-20T11:36:56;20.51;67.91
65478;SHT31;53678;39.642;22.430;2022-11-20T11:39:23;20.44;69.29
65478;SHT31;53678;39.642;22.430;2022-11-20T11:41:50;20.36;70.57
65478;SHT31;53678;39.642;22.430;2022-11-20T11:44:21;20.33;70.23
65478;SHT31;53678;39.642;22.430;2022-11-20T11:47:24;20.25;72.09
65478;SHT31;53678;39.642;22.430;2022-11-20T12:01:03;19.41;76.35
65478;SHT31;53678;39.642;22.430;2022-11-20T12:03:38;19.30;76.43
65478;SHT31;53678;39.642;22.430;2022-11-20T12:06:11;19.17;76.90
65478;SHT31;53678;39.642;22.430;2022-11-20T12:08:52;19.18;77.40
65478;SHT31;53678;39.642;22.430;2022-11-20T12:11:39;19.27;77.52
65478;SHT31;53678;39.642;22.430;2022-11-20T12:17:00;18.96;77.79
65478;SHT31;53678;39.642;22.430;2022-11-20T12:19:29;18.73;77.23
65478;SHT31;53678;39.642;22.430;2022-11-20T12:30:26;18.73;79.95
65478;SHT31;53678;39.642;22.430;2022-11-20T12:38:42;18.82;80.66
65478;SHT31;53678;39.642;22.430;2022-11-20T12:44:32;18.86;80.19
65478;SHT31;53678;39.642;22.430;2022-11-20T12:57:50;18.75;79.04
65478;SHT31;53678;39.642;22.430;2022-11-20T13:00:21;18.77;78.75
65478;SHT31;53678;39.642;22.430;2022-11-20T13:08:40;18.75;78.64
65478;SHT31;53678;39.642;22.430;2022-11-20T13:14:03;18.75;80.84
65478;SHT31;53678;39.642;22.430;2022-11-20T13:19:18;18.41;80.91
65478;SHT31;53678;39.642;22.430;2022-11-20T13:21:46;18.44;81.71
65478;SHT31;53678;39.642;22.430;2022-11-20T13:24:25;18.48;80.95
65478;SHT31;53678;39.642;22.430;2022-11-20T13:29:35;18.82;80.20
65478;SHT31;53678;39.642;22.430;2022-11-20T13:32:15;18.70;79.10
65478;SHT31;53678;39.642;22.430;2022-11-20T13:35:00;18.83;78.88
65478;SHT31;53678;39.642;22.430;2022-11-20T13:37:37;18.97;78.19
65478;SHT31;53678;39.642;22.430;2022-11-20T13:42:54;19.18;75.97
65478;SHT31;53678;39.642;22.430;2022-11-20T13:47:50;19.28;75.68
65478;SHT31;53678;39.642;22.430;2022-11-20T13:50:16;18.97;75.21
65478;SHT31;53678;39.642;22.430;2022-11-20T13:53:14;19.09;75.58
65478;SHT31;53678;39.642;22.430;2022-11-20T13:55:54;19.11;75.40
65478;SHT31;53678;39.642;22.430;2022-11-20T14:01:21;18.82;75.92
65478;SHT31;53678;39.642;22.430;2022-11-20T14:03:48;18.80;76.69
65478;SHT31;53678;39.642;22.430;2022-11-20T14:06:26;18.72;77.65
65478;SHT31;53678;39.642;22.430;2022-11-20T14:08:53;18.55;78.15
65478;SHT31;53678;39.642;22.430;2022-11-20T14:11:24;18.51;78.57
65478;SHT31;53678;39.642;22.430;2022-11-20T14:13:58;18.47;78.84
65478;SHT31;53678;39.642;22.430;2022-11-20T14:16:26;18.51;78.92
65478;SHT31;53678;39.642;22.430;2022-11-20T14:18:53;18.31;78.37
65478;SHT31;53678;39.642;22.430;2022-11-20T14:21:28;18.25;78.79
65478;SHT31;53678;39.642;22.430;2022-11-20T14:24:09;18.24;79.08
65478;SHT31;53678;39.642;22.430;2022-11-20T14:26:41;18.21;79.34
65478;SHT31;53678;39.642;22.430;2022-11-20T14:29:21;18.35;78.91
65478;SHT31;53678;39.642;22.430;2022-11-20T14:31:53;18.28;79.88
65478;SHT31;53678;39.642;22.430;2022-11-20T14:34:27;18.21;79.86
65478;SHT31;53678;39.642;22.430;2022-11-20T14:36:59;18.11;80.32
65478;SHT31;53678;39.642;22.430;2022-11-20T14:39:36;18.11;80.70
65478;SHT31;53678;39.642;22.430;2022-11-20T14:42:17;17.86;81.40
65478;SHT31;53678;39.642;22.430;2022-11-20T14:44:44;17.80;81.82
65478;SHT31;53678;39.642;22.430;2022-11-20T14:47:13;17.93;81.31
65478;SHT31;53678;39.642;22.430;2022-11-20T14:49:41;17.83;81.52
65478;SHT31;53678;39.642;22.430;2022-11-20T14:52:22;17.90;81.23
65478;SHT31;53678;39.642;22.430;2022-11-20T14:54:53;17.73;81.46
65478;SHT31;53678;39.642;22.430;2022-11-20T14:57:31;17.67;81.94
65478;SHT31;53678;39.642;22.430;2022-11-20T15:02:44;17.59;82.06
65478;SHT31;53678;39.642;22.430;2022-11-20T15:05:10;17.69;82.37
65478;SHT31;53678;39.642;22.430;2022-11-20T15:07:38;17.73;82.02
65478;SHT31;53678;39.642;22.430;2022-11-20T15:10:11;17.53;82.37
65478;SHT31;53678;39.642;22.430;2022-11-20T15:12:45;17.29;84.20
65478;SHT31;53678;39.642;22.430;2022-11-20T15:15:23;17.05;84.91
65478;SHT31;53678;39.642;22.430;2022-11-20T15:17:51;17.28;84.15
65478;SHT31;53678;39.642;22.430;2022-11-20T15:20:17;17.21;83.67
65478;SHT31;53678;39.642;22.430;2022-11-20T15:22:43;17.02;84.40
65478;SHT31;53678;39.642;22.430;2022-11-20T15:25:17;17.18;84.08
65478;SHT31;53678;39.642;22.430;2022-11-20T15:27:45;17.16;84.46
65478;SHT31;53678;39.642;22.430;2022-11-20T15:30:14;17.04;84.05
65478;SHT31;53678;39.642;22.430;2022-11-20T15:32:41;17.00;84.30
65478;SHT31;53678;39.642;22.430;2022-11-20T15:35:07;17.07;84.23
65478;SHT31;53678;39.642;22.430;2022-11-20T15:37:33;17.29;84.19
65478;SHT31;53678;39.642;22.430;2022-11-20T15:39:59;17.11;84.53
65478;SHT31;53678;39.642;22.430;2022-11-20T15:42:25;16.84;84.75
65478;SHT31;53678;39.642;22.430;2022-11-20T15:44:51;16.85;85.13
65478;SHT31;53678;39.642;22.430;2022-11-20T15:47:17;16.98;84.64
65478;SHT31;53678;39.642;22.430;2022-11-20T15:49:44;17.29;82.92
65478;SHT31;53678;39.642;22.430;2022-11-20T15:52:10;17.26;83.10
65478;SHT31;53678;39.642;22.430;2022-11-20T15:54:38;16.89;84.96
65478;SHT31;53678;39.642;22.430;2022-11-20T15:57:03;16.95;85.15
65478;SHT31;53678;39.642;22.430;2022-11-20T15:59:31;16.89;84.90
65478;SHT31;53678;39.642;22.430;2022-11-20T16:01:57;16.88;85.22
65478;SHT31;53678;39.642;22.430;2022-11-20T16:04:23;17.14;83.75
65478;SHT31;53678;39.642;22.430;2022-11-20T16:06:49;17.11;83.51
65478;SHT31;53678;39.642;22.430;2022-11-20T16:09:15;17.14;83.18
65478;SHT31;53678;39.642;22.430;2022-11-20T16:11:41;16.89;83.40
65478;SHT31;53678;39.642;22.430;2022-11-20T16:14:10;16.71;84.18
65478;SHT31;53678;39.642;22.430;2022-11-20T16:16:57;16.85;83.95
65478;SHT31;53678;39.642;22.430;2022-11-20T16:19:23;16.77;83.69
65478;SHT31;53678;39.642;22.430;2022-11-20T16:21:49;16.75;84.38
65478;SHT31;53678;39.642;22.430;2022-11-20T16:24:15;16.60;86.41
65478;SHT31;53678;39.642;22.430;2022-11-20T16:26:43;16.49;85.52
65478;SHT31;53678;39.642;22.430;2022-11-20T16:29:09;16.61;85.17
65478;SHT31;53678;39.642;22.430;2022-11-20T16:31:36;16.61;84.05
65478;SHT31;53678;39.642;22.430;2022-11-20T16:34:05;16.78;83.64
65478;SHT31;53678;39.642;22.430;2022-11-20T16:36:33;16.83;83.02
65478;SHT31;53678;39.642;22.430;2022-11-20T16:39:01;16.87;82.73
65478;SHT31;53678;39.642;22.430;2022-11-20T16:41:30;17.02;82.43
65478;SHT31;53678;39.642;22.430;2022-11-20T16:44:00;17.00;82.27
65478;SHT31;53678;39.642;22.430;2022-11-20T16:46:28;16.85;81.94
65478;SHT31;53678;39.642;22.430;2022-11-20T16:48:55;16.83;82.55
65478;SHT31;53678;39.642;22.430;2022-11-20T16:51:22;16.77;83.29
65478;SHT31;53678;39.642;22.430;2022-11-20T16:53:49;16.84;82.60
65478;SHT31;53678;39.642;22.430;2022-11-20T16:56:20;16.89;82.37
65478;SHT31;53678;39.642;22.430;2022-11-20T16:58:47;16.88;82.38
65478;SHT31;53678;39.642;22.430;2022-11-20T17:01:17;16.91;82.69
65478;SHT31;53678;39.642;22.430;2022-11-20T17:03:46;16.92;83.16